Strona główna
METAR-TAF:

METAR-TAF

Lotnisko :

Port lotniczy Nosy Be

Nosy Be, Madagaskar

Szerokość geograficzna: 13-19S, Długość geograficzna: 048-19E, wysokość: 10 m

Aktualna obserwacja pogody

Raport powstał 10 godziny i 56 minut temu, godzina 12:00 UTC
Wiatr 6 kt od zachód
Temperatura 31°C
Ciśnienie 1012 hPa
Widzialność 10 km lub więcej
Mało chmury na wysokości 2000 ft

METAR: FMNN 301200Z 28006KT 9999 FEW020 31/// Q1012

czas: 01:56 (22:56 UTC)

Prognoza

Raport powstał 5 godziny i 56 minut temu, godzina 17:00 UTC
Prognoza ważna od 30 godzina 18 UTC do 31 godzina 18 UTC
Wiatr 6 kt od zachód
Widzialność 10 km lub więcej
Rozproszone chmury na wysokości 2000 ft
Prawdopodobieństwo 30% :
Przejściowo
od 31 godzina 06 UTC do 31 godzina 10 UTC
Widzialność: 4500 m
przelotny opad deszczu

TAF: FMNN 301700Z 3018/3118 26006KT 9999 SCT020 PROB30 TEMPO 3106/3110 4500 SHRA

Obserwacja i prognoza pogody dla ponad 4000 lotnisk (raport METAR i TAF).

Dostępne stacje oznaczono żółtymi i czerwonymi punktami na mapie.

Najedź kursorem aby zobaczyć nazwę stacji.

Kliknij aby zobaczyć obserwacje i prognozy pogody.

Aby zmienić mapę: kliknij na zielony przycisk z czarnym krzyżykiem, aby powiększyć; na zielony przycisk z myślnikiem, aby pomniejszyć; na zielone strzałki, aby przejść do map sąsiednich.


METAR-TAF: